Adrian, Texas
Current Conditions -  °F | °C
As of 1:55 PM on Thursday 18 Dec 2014 (Local Time) from KHRX Reporting Station
Clear Clear  
Wind Chill: 44°   Ceiling: Unl
Heat Index: 44°   Visibility: 10mi
Dew Point: 34°   Wind: 0mph
Humidity: 67%   Direction: NA
Pressure: 30.06"   Gusts: NA
Location:  35.27°N, 102.67°W
Report Text: KHRX 181955Z AUTO 00000KT 10SM CLR 07/01 A3006 RMK AO2 T00690012
Loading
Personal Weather Stations






























Interactive Weather Map New forecast layout! Learn more

10-Day Weather Forecast

Advertisements
Track Severe Weather on mobile